sensor_id;sensor_type;location;lat;lon;timestamp;P1;durP1;ratioP1;P2;durP2;ratioP2
65737;SDS011;52478;51.844;6.582;2023-10-19T00:01:25;5.63;;;1.98;;
65737;SDS011;52478;51.844;6.582;2023-10-19T00:03:54;5.50;;;1.90;;
65737;SDS011;52478;51.844;6.582;2023-10-19T00:06:21;5.82;;;1.70;;
65737;SDS011;52478;51.844;6.582;2023-10-19T00:08:48;5.78;;;2.08;;
65737;SDS011;52478;51.844;6.582;2023-10-19T00:11:15;5.88;;;2.20;;
65737;SDS011;52478;51.844;6.582;2023-10-19T00:13:49;6.00;;;2.58;;
65737;SDS011;52478;51.844;6.582;2023-10-19T00:16:15;5.75;;;2.10;;
65737;SDS011;52478;51.844;6.582;2023-10-19T00:18:42;5.78;;;2.00;;
65737;SDS011;52478;51.844;6.582;2023-10-19T00:21:10;6.18;;;2.38;;
65737;SDS011;52478;51.844;6.582;2023-10-19T00:23:45;6.97;;;1.90;;
65737;SDS011;52478;51.844;6.582;2023-10-19T00:26:12;6.18;;;2.28;;
65737;SDS011;52478;51.844;6.582;2023-10-19T00:28:40;5.93;;;2.08;;
65737;SDS011;52478;51.844;6.582;2023-10-19T00:31:09;5.85;;;2.30;;
65737;SDS011;52478;51.844;6.582;2023-10-19T00:33:36;5.05;;;1.83;;
65737;SDS011;52478;51.844;6.582;2023-10-19T00:36:04;6.72;;;2.25;;
65737;SDS011;52478;51.844;6.582;2023-10-19T00:38:34;5.57;;;2.03;;
65737;SDS011;52478;51.844;6.582;2023-10-19T00:41:12;5.63;;;2.13;;
65737;SDS011;52478;51.844;6.582;2023-10-19T00:43:45;7.53;;;1.80;;
65737;SDS011;52478;51.844;6.582;2023-10-19T00:46:15;5.15;;;2.03;;
65737;SDS011;52478;51.844;6.582;2023-10-19T00:48:47;5.97;;;2.05;;
65737;SDS011;52478;51.844;6.582;2023-10-19T00:51:16;7.47;;;2.40;;
65737;SDS011;52478;51.844;6.582;2023-10-19T00:56:24;5.20;;;2.33;;
65737;SDS011;52478;51.844;6.582;2023-10-19T00:58:56;5.68;;;2.13;;
65737;SDS011;52478;51.844;6.582;2023-10-19T01:01:26;6.07;;;1.83;;
65737;SDS011;52478;51.844;6.582;2023-10-19T01:03:55;5.53;;;2.13;;
65737;SDS011;52478;51.844;6.582;2023-10-19T01:06:23;5.20;;;1.88;;
65737;SDS011;52478;51.844;6.582;2023-10-19T01:08:49;5.55;;;2.05;;
65737;SDS011;52478;51.844;6.582;2023-10-19T01:13:46;4.78;;;1.70;;
65737;SDS011;52478;51.844;6.582;2023-10-19T01:16:13;5.80;;;2.40;;
65737;SDS011;52478;51.844;6.582;2023-10-19T01:18:47;4.90;;;1.80;;
65737;SDS011;52478;51.844;6.582;2023-10-19T01:21:18;5.13;;;2.10;;
65737;SDS011;52478;51.844;6.582;2023-10-19T01:23:47;5.50;;;2.10;;
65737;SDS011;52478;51.844;6.582;2023-10-19T01:26:14;6.30;;;2.20;;
65737;SDS011;52478;51.844;6.582;2023-10-19T01:28:47;6.57;;;2.22;;
65737;SDS011;52478;51.844;6.582;2023-10-19T01:31:17;5.78;;;2.20;;
65737;SDS011;52478;51.844;6.582;2023-10-19T01:33:56;5.97;;;2.00;;
65737;SDS011;52478;51.844;6.582;2023-10-19T01:36:23;5.30;;;1.70;;
65737;SDS011;52478;51.844;6.582;2023-10-19T01:38:54;5.35;;;2.28;;
65737;SDS011;52478;51.844;6.582;2023-10-19T01:41:21;5.00;;;2.03;;
65737;SDS011;52478;51.844;6.582;2023-10-19T01:43:49;5.85;;;2.10;;
65737;SDS011;52478;51.844;6.582;2023-10-19T01:46:16;4.88;;;2.08;;
65737;SDS011;52478;51.844;6.582;2023-10-19T01:48:48;4.85;;;1.85;;
65737;SDS011;52478;51.844;6.582;2023-10-19T01:51:19;6.88;;;2.30;;
65737;SDS011;52478;51.844;6.582;2023-10-19T01:53:46;5.03;;;1.90;;
65737;SDS011;52478;51.844;6.582;2023-10-19T01:56:14;5.13;;;1.85;;
65737;SDS011;52478;51.844;6.582;2023-10-19T01:58:42;6.75;;;2.08;;
65737;SDS011;52478;51.844;6.582;2023-10-19T02:01:09;5.30;;;2.03;;
65737;SDS011;52478;51.844;6.582;2023-10-19T02:03:40;7.13;;;2.08;;
65737;SDS011;52478;51.844;6.582;2023-10-19T02:06:07;5.07;;;1.75;;
65737;SDS011;52478;51.844;6.582;2023-10-19T02:08:43;6.03;;;2.00;;
65737;SDS011;52478;51.844;6.582;2023-10-19T02:11:18;4.93;;;2.00;;
65737;SDS011;52478;51.844;6.582;2023-10-19T02:13:46;4.80;;;2.03;;
65737;SDS011;52478;51.844;6.582;2023-10-19T02:16:14;6.22;;;2.40;;
65737;SDS011;52478;51.844;6.582;2023-10-19T02:18:42;5.25;;;2.00;;
65737;SDS011;52478;51.844;6.582;2023-10-19T02:21:08;4.97;;;1.80;;
65737;SDS011;52478;51.844;6.582;2023-10-19T02:23:37;5.93;;;2.10;;
65737;SDS011;52478;51.844;6.582;2023-10-19T02:26:03;5.00;;;1.77;;
65737;SDS011;52478;51.844;6.582;2023-10-19T02:28:31;5.22;;;1.77;;
65737;SDS011;52478;51.844;6.582;2023-10-19T02:30:57;6.93;;;2.22;;
65737;SDS011;52478;51.844;6.582;2023-10-19T02:33:35;5.47;;;2.00;;
65737;SDS011;52478;51.844;6.582;2023-10-19T02:36:02;4.75;;;1.65;;
65737;SDS011;52478;51.844;6.582;2023-10-19T02:38:29;4.93;;;1.92;;
65737;SDS011;52478;51.844;6.582;2023-10-19T02:40:55;5.70;;;2.13;;
65737;SDS011;52478;51.844;6.582;2023-10-19T02:43:21;6.30;;;2.00;;
65737;SDS011;52478;51.844;6.582;2023-10-19T02:45:50;5.70;;;1.83;;
65737;SDS011;52478;51.844;6.582;2023-10-19T02:48:18;5.18;;;1.70;;
65737;SDS011;52478;51.844;6.582;2023-10-19T02:50:44;5.20;;;1.60;;
65737;SDS011;52478;51.844;6.582;2023-10-19T02:53:11;5.55;;;2.00;;
65737;SDS011;52478;51.844;6.582;2023-10-19T02:55:38;6.78;;;1.83;;
65737;SDS011;52478;51.844;6.582;2023-10-19T02:58:06;5.20;;;1.90;;
65737;SDS011;52478;51.844;6.582;2023-10-19T03:00:32;5.40;;;2.13;;
65737;SDS011;52478;51.844;6.582;2023-10-19T03:03:00;5.30;;;2.10;;
65737;SDS011;52478;51.844;6.582;2023-10-19T03:05:26;5.30;;;1.67;;
65737;SDS011;52478;51.844;6.582;2023-10-19T03:07:53;4.82;;;1.60;;
65737;SDS011;52478;51.844;6.582;2023-10-19T03:10:19;4.85;;;1.90;;
65737;SDS011;52478;51.844;6.582;2023-10-19T03:12:59;5.05;;;1.75;;
65737;SDS011;52478;51.844;6.582;2023-10-19T03:15:24;5.13;;;1.80;;
65737;SDS011;52478;51.844;6.582;2023-10-19T03:17:52;5.18;;;2.10;;
65737;SDS011;52478;51.844;6.582;2023-10-19T03:20:19;5.75;;;1.50;;
65737;SDS011;52478;51.844;6.582;2023-10-19T03:22:48;5.45;;;1.83;;
65737;SDS011;52478;51.844;6.582;2023-10-19T03:25:15;5.70;;;1.60;;
65737;SDS011;52478;51.844;6.582;2023-10-19T03:27:56;5.43;;;1.70;;
65737;SDS011;52478;51.844;6.582;2023-10-19T03:30:23;4.93;;;1.98;;
65737;SDS011;52478;51.844;6.582;2023-10-19T03:32:50;4.82;;;1.75;;
65737;SDS011;52478;51.844;6.582;2023-10-19T03:35:18;4.60;;;1.55;;
65737;SDS011;52478;51.844;6.582;2023-10-19T03:37:46;5.72;;;2.05;;
65737;SDS011;52478;51.844;6.582;2023-10-19T03:40:14;4.90;;;1.80;;
65737;SDS011;52478;51.844;6.582;2023-10-19T03:42:50;5.15;;;1.90;;
65737;SDS011;52478;51.844;6.582;2023-10-19T03:45:19;4.78;;;1.98;;
65737;SDS011;52478;51.844;6.582;2023-10-19T03:47:50;5.60;;;1.90;;
65737;SDS011;52478;51.844;6.582;2023-10-19T03:50:22;5.90;;;2.30;;
65737;SDS011;52478;51.844;6.582;2023-10-19T03:52:48;5.28;;;1.88;;
65737;SDS011;52478;51.844;6.582;2023-10-19T03:55:15;5.32;;;1.80;;
65737;SDS011;52478;51.844;6.582;2023-10-19T03:57:44;4.78;;;1.80;;
65737;SDS011;52478;51.844;6.582;2023-10-19T04:00:15;5.32;;;1.90;;
65737;SDS011;52478;51.844;6.582;2023-10-19T04:02:43;4.95;;;1.70;;
65737;SDS011;52478;51.844;6.582;2023-10-19T04:05:10;4.57;;;1.55;;
65737;SDS011;52478;51.844;6.582;2023-10-19T04:07:41;5.13;;;1.98;;
65737;SDS011;52478;51.844;6.582;2023-10-19T04:10:09;5.78;;;1.90;;
65737;SDS011;52478;51.844;6.582;2023-10-19T04:12:54;3.88;;;1.55;;
65737;SDS011;52478;51.844;6.582;2023-10-19T04:15:22;5.20;;;2.00;;
65737;SDS011;52478;51.844;6.582;2023-10-19T04:17:52;4.60;;;1.88;;
65737;SDS011;52478;51.844;6.582;2023-10-19T04:20:20;4.63;;;1.63;;
65737;SDS011;52478;51.844;6.582;2023-10-19T04:22:55;4.30;;;1.50;;
65737;SDS011;52478;51.844;6.582;2023-10-19T04:25:23;6.93;;;2.20;;
65737;SDS011;52478;51.844;6.582;2023-10-19T04:27:51;5.78;;;1.77;;
65737;SDS011;52478;51.844;6.582;2023-10-19T04:30:18;4.93;;;2.00;;
65737;SDS011;52478;51.844;6.582;2023-10-19T04:32:47;5.88;;;1.83;;
65737;SDS011;52478;51.844;6.582;2023-10-19T04:35:15;4.88;;;1.50;;
65737;SDS011;52478;51.844;6.582;2023-10-19T04:37:46;4.82;;;1.65;;
65737;SDS011;52478;51.844;6.582;2023-10-19T04:40:14;5.03;;;1.63;;
65737;SDS011;52478;51.844;6.582;2023-10-19T04:42:40;5.88;;;1.90;;
65737;SDS011;52478;51.844;6.582;2023-10-19T04:45:07;5.45;;;1.55;;
65737;SDS011;52478;51.844;6.582;2023-10-19T04:47:36;6.43;;;1.90;;
65737;SDS011;52478;51.844;6.582;2023-10-19T04:50:03;6.35;;;1.80;;
65737;SDS011;52478;51.844;6.582;2023-10-19T04:52:31;4.68;;;1.80;;
65737;SDS011;52478;51.844;6.582;2023-10-19T04:54:58;4.70;;;1.58;;
65737;SDS011;52478;51.844;6.582;2023-10-19T04:57:27;5.63;;;1.65;;
65737;SDS011;52478;51.844;6.582;2023-10-19T04:59:54;5.90;;;1.70;;
65737;SDS011;52478;51.844;6.582;2023-10-19T05:02:21;4.55;;;1.55;;
65737;SDS011;52478;51.844;6.582;2023-10-19T05:04:48;5.78;;;1.70;;
65737;SDS011;52478;51.844;6.582;2023-10-19T05:07:14;5.60;;;1.90;;
65737;SDS011;52478;51.844;6.582;2023-10-19T05:09:42;4.00;;;1.70;;
65737;SDS011;52478;51.844;6.582;2023-10-19T05:14:38;5.57;;;1.70;;
65737;SDS011;52478;51.844;6.582;2023-10-19T05:17:05;4.60;;;1.70;;
65737;SDS011;52478;51.844;6.582;2023-10-19T05:19:32;5.90;;;2.08;;
65737;SDS011;52478;51.844;6.582;2023-10-19T05:22:00;7.85;;;2.03;;
65737;SDS011;52478;51.844;6.582;2023-10-19T16:53:52;7.85;;;2.92;;
65737;SDS011;52478;51.844;6.582;2023-10-19T16:56:19;7.82;;;2.72;;
65737;SDS011;52478;51.844;6.582;2023-10-19T16:58:46;7.30;;;2.58;;
65737;SDS011;52478;51.844;6.582;2023-10-19T17:01:12;7.22;;;2.85;;
65737;SDS011;52478;51.844;6.582;2023-10-19T17:03:39;7.65;;;2.53;;
65737;SDS011;52478;51.844;6.582;2023-10-19T17:06:06;7.50;;;2.45;;
65737;SDS011;52478;51.844;6.582;2023-10-19T17:13:27;7.57;;;2.40;;
65737;SDS011;52478;51.844;6.582;2023-10-19T17:15:54;14.93;;;2.75;;
65737;SDS011;52478;51.844;6.582;2023-10-19T17:18:21;9.25;;;2.55;;
65737;SDS011;52478;51.844;6.582;2023-10-19T17:20:48;6.75;;;2.22;;
65737;SDS011;52478;51.844;6.582;2023-10-19T17:23:14;10.60;;;2.90;;
65737;SDS011;52478;51.844;6.582;2023-10-19T17:25:41;8.02;;;2.53;;
65737;SDS011;52478;51.844;6.582;2023-10-19T17:28:09;8.98;;;2.92;;
65737;SDS011;52478;51.844;6.582;2023-10-19T17:30:36;9.15;;;2.70;;
65737;SDS011;52478;51.844;6.582;2023-10-19T17:33:03;7.63;;;2.38;;
65737;SDS011;52478;51.844;6.582;2023-10-19T17:35:30;6.90;;;2.42;;
65737;SDS011;52478;51.844;6.582;2023-10-19T17:37:56;19.55;;;3.00;;
65737;SDS011;52478;51.844;6.582;2023-10-19T17:40:23;6.85;;;2.10;;
65737;SDS011;52478;51.844;6.582;2023-10-19T17:42:49;6.97;;;2.25;;
65737;SDS011;52478;51.844;6.582;2023-10-19T17:45:18;7.30;;;1.83;;
65737;SDS011;52478;51.844;6.582;2023-10-19T17:47:44;6.40;;;1.90;;
65737;SDS011;52478;51.844;6.582;2023-10-19T17:50:11;7.55;;;2.13;;
65737;SDS011;52478;51.844;6.582;2023-10-19T17:52:39;7.10;;;2.35;;
65737;SDS011;52478;51.844;6.582;2023-10-19T17:55:05;10.50;;;2.00;;
65737;SDS011;52478;51.844;6.582;2023-10-19T17:57:32;8.55;;;1.98;;
65737;SDS011;52478;51.844;6.582;2023-10-19T17:59:59;6.85;;;1.90;;
65737;SDS011;52478;51.844;6.582;2023-10-19T18:02:27;6.85;;;2.10;;
65737;SDS011;52478;51.844;6.582;2023-10-19T18:04:53;7.38;;;2.05;;
65737;SDS011;52478;51.844;6.582;2023-10-19T18:07:20;5.95;;;1.92;;
65737;SDS011;52478;51.844;6.582;2023-10-19T18:09:46;5.88;;;1.70;;
65737;SDS011;52478;51.844;6.582;2023-10-19T18:12:14;6.88;;;2.13;;
65737;SDS011;52478;51.844;6.582;2023-10-19T18:17:09;5.82;;;1.80;;
65737;SDS011;52478;51.844;6.582;2023-10-19T18:19:38;5.35;;;1.80;;
65737;SDS011;52478;51.844;6.582;2023-10-19T18:22:04;6.53;;;1.98;;
65737;SDS011;52478;51.844;6.582;2023-10-19T18:24:31;6.80;;;2.10;;
65737;SDS011;52478;51.844;6.582;2023-10-19T18:26:58;5.28;;;1.73;;
65737;SDS011;52478;51.844;6.582;2023-10-19T18:29:25;7.38;;;2.00;;
65737;SDS011;52478;51.844;6.582;2023-10-19T18:34:19;6.70;;;1.90;;
65737;SDS011;52478;51.844;6.582;2023-10-19T18:36:48;6.57;;;1.90;;
65737;SDS011;52478;51.844;6.582;2023-10-19T18:39:14;5.88;;;1.80;;
65737;SDS011;52478;51.844;6.582;2023-10-19T18:41:43;8.98;;;2.10;;
65737;SDS011;52478;51.844;6.582;2023-10-19T18:44:10;6.78;;;2.30;;
65737;SDS011;52478;51.844;6.582;2023-10-19T18:46:37;6.63;;;1.83;;
65737;SDS011;52478;51.844;6.582;2023-10-19T18:49:03;7.15;;;1.77;;
65737;SDS011;52478;51.844;6.582;2023-10-19T18:51:30;6.30;;;1.90;;
65737;SDS011;52478;51.844;6.582;2023-10-19T18:54:00;6.53;;;1.90;;
65737;SDS011;52478;51.844;6.582;2023-10-19T18:56:29;6.10;;;1.77;;
65737;SDS011;52478;51.844;6.582;2023-10-19T19:01:24;6.30;;;1.90;;
65737;SDS011;52478;51.844;6.582;2023-10-19T19:03:52;5.75;;;1.95;;
65737;SDS011;52478;51.844;6.582;2023-10-19T19:06:18;8.32;;;2.22;;
65737;SDS011;52478;51.844;6.582;2023-10-19T19:08:45;11.20;;;1.95;;
65737;SDS011;52478;51.844;6.582;2023-10-19T19:11:14;8.65;;;2.00;;
65737;SDS011;52478;51.844;6.582;2023-10-19T19:13:42;5.97;;;1.63;;
65737;SDS011;52478;51.844;6.582;2023-10-19T19:16:09;8.52;;;2.30;;
65737;SDS011;52478;51.844;6.582;2023-10-19T19:18:36;8.85;;;1.98;;
65737;SDS011;52478;51.844;6.582;2023-10-19T19:21:03;11.80;;;2.00;;
65737;SDS011;52478;51.844;6.582;2023-10-19T19:23:33;7.55;;;1.80;;
65737;SDS011;52478;51.844;6.582;2023-10-19T19:25:59;6.60;;;2.03;;
65737;SDS011;52478;51.844;6.582;2023-10-19T19:28:27;7.80;;;2.15;;
65737;SDS011;52478;51.844;6.582;2023-10-19T19:30:57;8.07;;;1.70;;
65737;SDS011;52478;51.844;6.582;2023-10-19T19:33:23;5.45;;;1.80;;
65737;SDS011;52478;51.844;6.582;2023-10-19T19:35:50;7.60;;;2.00;;
65737;SDS011;52478;51.844;6.582;2023-10-19T19:38:16;6.00;;;1.60;;
65737;SDS011;52478;51.844;6.582;2023-10-19T19:40:43;7.50;;;2.03;;
65737;SDS011;52478;51.844;6.582;2023-10-19T19:43:09;4.93;;;1.70;;
65737;SDS011;52478;51.844;6.582;2023-10-19T19:45:37;7.43;;;1.83;;
65737;SDS011;52478;51.844;6.582;2023-10-19T19:48:07;5.13;;;1.70;;
65737;SDS011;52478;51.844;6.582;2023-10-19T19:50:35;7.32;;;2.20;;
65737;SDS011;52478;51.844;6.582;2023-10-19T19:53:06;5.53;;;1.65;;
65737;SDS011;52478;51.844;6.582;2023-10-19T19:55:34;8.07;;;1.70;;
65737;SDS011;52478;51.844;6.582;2023-10-19T19:58:02;5.68;;;1.85;;
65737;SDS011;52478;51.844;6.582;2023-10-19T20:00:29;6.82;;;1.90;;
65737;SDS011;52478;51.844;6.582;2023-10-19T20:02:58;6.75;;;1.83;;
65737;SDS011;52478;51.844;6.582;2023-10-19T20:05:25;6.07;;;1.90;;
65737;SDS011;52478;51.844;6.582;2023-10-19T20:07:55;8.60;;;1.90;;
65737;SDS011;52478;51.844;6.582;2023-10-19T20:10:22;5.95;;;1.90;;
65737;SDS011;52478;51.844;6.582;2023-10-19T20:12:49;6.85;;;1.88;;
65737;SDS011;52478;51.844;6.582;2023-10-19T20:15:16;6.40;;;2.00;;
65737;SDS011;52478;51.844;6.582;2023-10-19T20:17:43;7.72;;;2.08;;
65737;SDS011;52478;51.844;6.582;2023-10-19T20:20:11;7.32;;;1.92;;
65737;SDS011;52478;51.844;6.582;2023-10-19T20:22:37;6.70;;;2.10;;
65737;SDS011;52478;51.844;6.582;2023-10-19T20:25:05;8.52;;;1.70;;
65737;SDS011;52478;51.844;6.582;2023-10-19T20:27:36;14.27;;;2.40;;
65737;SDS011;52478;51.844;6.582;2023-10-19T20:30:03;11.63;;;2.53;;
65737;SDS011;52478;51.844;6.582;2023-10-19T20:32:31;9.02;;;2.78;;
65737;SDS011;52478;51.844;6.582;2023-10-19T20:34:57;7.43;;;2.70;;
65737;SDS011;52478;51.844;6.582;2023-10-19T20:37:25;7.38;;;2.42;;
65737;SDS011;52478;51.844;6.582;2023-10-19T20:39:52;6.75;;;2.75;;
65737;SDS011;52478;51.844;6.582;2023-10-19T20:42:18;10.38;;;2.70;;
65737;SDS011;52478;51.844;6.582;2023-10-19T20:44:45;8.68;;;2.33;;
65737;SDS011;52478;51.844;6.582;2023-10-19T20:47:11;7.53;;;2.20;;
65737;SDS011;52478;51.844;6.582;2023-10-19T20:49:39;6.65;;;2.45;;
65737;SDS011;52478;51.844;6.582;2023-10-19T20:52:06;7.18;;;2.63;;
65737;SDS011;52478;51.844;6.582;2023-10-19T20:54:35;13.95;;;3.28;;
65737;SDS011;52478;51.844;6.582;2023-10-19T20:57:01;9.77;;;3.17;;
65737;SDS011;52478;51.844;6.582;2023-10-19T20:59:28;8.35;;;2.83;;
65737;SDS011;52478;51.844;6.582;2023-10-19T21:01:54;8.43;;;3.20;;
65737;SDS011;52478;51.844;6.582;2023-10-19T21:04:22;9.77;;;3.08;;
65737;SDS011;52478;51.844;6.582;2023-10-19T21:06:48;9.43;;;2.75;;
65737;SDS011;52478;51.844;6.582;2023-10-19T21:09:15;7.35;;;2.42;;
65737;SDS011;52478;51.844;6.582;2023-10-19T21:11:43;7.63;;;2.72;;
65737;SDS011;52478;51.844;6.582;2023-10-19T21:14:10;6.72;;;2.80;;
65737;SDS011;52478;51.844;6.582;2023-10-19T21:16:36;7.32;;;2.80;;
65737;SDS011;52478;51.844;6.582;2023-10-19T21:19:03;7.07;;;3.13;;
65737;SDS011;52478;51.844;6.582;2023-10-19T21:21:31;6.07;;;2.78;;
65737;SDS011;52478;51.844;6.582;2023-10-19T21:23:57;8.77;;;3.00;;
65737;SDS011;52478;51.844;6.582;2023-10-19T21:26:25;8.05;;;2.78;;
65737;SDS011;52478;51.844;6.582;2023-10-19T21:28:53;7.63;;;2.97;;
65737;SDS011;52478;51.844;6.582;2023-10-19T21:31:20;9.77;;;3.20;;
65737;SDS011;52478;51.844;6.582;2023-10-19T21:33:46;8.80;;;3.20;;
65737;SDS011;52478;51.844;6.582;2023-10-19T21:36:13;9.27;;;3.30;;
65737;SDS011;52478;51.844;6.582;2023-10-19T21:38:40;7.90;;;2.92;;
65737;SDS011;52478;51.844;6.582;2023-10-19T21:41:07;7.07;;;3.13;;
65737;SDS011;52478;51.844;6.582;2023-10-19T21:43:34;6.85;;;2.97;;
65737;SDS011;52478;51.844;6.582;2023-10-19T21:46:02;7.88;;;2.88;;
65737;SDS011;52478;51.844;6.582;2023-10-19T21:48:29;8.20;;;3.10;;
65737;SDS011;52478;51.844;6.582;2023-10-19T21:50:56;7.78;;;3.35;;
65737;SDS011;52478;51.844;6.582;2023-10-19T21:53:23;9.88;;;3.30;;
65737;SDS011;52478;51.844;6.582;2023-10-19T21:55:51;8.80;;;3.28;;
65737;SDS011;52478;51.844;6.582;2023-10-19T21:58:17;6.57;;;2.83;;
65737;SDS011;52478;51.844;6.582;2023-10-19T22:00:44;8.52;;;3.58;;
65737;SDS011;52478;51.844;6.582;2023-10-19T22:03:23;6.75;;;2.90;;
65737;SDS011;52478;51.844;6.582;2023-10-19T22:05:50;8.05;;;2.92;;
65737;SDS011;52478;51.844;6.582;2023-10-19T22:08:16;7.88;;;3.05;;
65737;SDS011;52478;51.844;6.582;2023-10-19T22:13:10;8.40;;;3.00;;
65737;SDS011;52478;51.844;6.582;2023-10-19T22:15:38;8.82;;;3.28;;
65737;SDS011;52478;51.844;6.582;2023-10-19T22:18:05;7.20;;;3.33;;
65737;SDS011;52478;51.844;6.582;2023-10-19T22:20:34;9.40;;;3.45;;
65737;SDS011;52478;51.844;6.582;2023-10-19T22:23:01;8.68;;;3.25;;
65737;SDS011;52478;51.844;6.582;2023-10-19T22:25:28;7.72;;;3.17;;
65737;SDS011;52478;51.844;6.582;2023-10-19T22:27:55;8.02;;;3.30;;
65737;SDS011;52478;51.844;6.582;2023-10-19T22:30:22;7.53;;;3.45;;
65737;SDS011;52478;51.844;6.582;2023-10-19T22:32:48;8.27;;;3.45;;
65737;SDS011;52478;51.844;6.582;2023-10-19T22:35:15;6.78;;;2.92;;
65737;SDS011;52478;51.844;6.582;2023-10-19T22:37:44;9.93;;;3.35;;
65737;SDS011;52478;51.844;6.582;2023-10-19T22:40:11;8.80;;;3.40;;
65737;SDS011;52478;51.844;6.582;2023-10-19T22:42:38;7.88;;;3.75;;
65737;SDS011;52478;51.844;6.582;2023-10-19T22:45:04;8.25;;;3.30;;
65737;SDS011;52478;51.844;6.582;2023-10-19T22:47:32;7.70;;;3.38;;
65737;SDS011;52478;51.844;6.582;2023-10-19T22:49:59;8.63;;;3.38;;
65737;SDS011;52478;51.844;6.582;2023-10-19T22:52:25;8.40;;;3.42;;
65737;SDS011;52478;51.844;6.582;2023-10-19T22:54:55;7.93;;;3.45;;
65737;SDS011;52478;51.844;6.582;2023-10-19T22:57:22;8.63;;;3.45;;
65737;SDS011;52478;51.844;6.582;2023-10-19T22:59:48;7.15;;;3.22;;
65737;SDS011;52478;51.844;6.582;2023-10-19T23:02:14;11.95;;;3.58;;
65737;SDS011;52478;51.844;6.582;2023-10-19T23:07:10;7.75;;;3.33;;
65737;SDS011;52478;51.844;6.582;2023-10-19T23:09:37;8.18;;;3.30;;
65737;SDS011;52478;51.844;6.582;2023-10-19T23:12:06;9.02;;;3.47;;
65737;SDS011;52478;51.844;6.582;2023-10-19T23:14:37;7.05;;;3.38;;
65737;SDS011;52478;51.844;6.582;2023-10-19T23:17:09;9.45;;;3.50;;
65737;SDS011;52478;51.844;6.582;2023-10-19T23:19:40;8.27;;;3.22;;
65737;SDS011;52478;51.844;6.582;2023-10-19T23:22:09;10.95;;;3.88;;
65737;SDS011;52478;51.844;6.582;2023-10-19T23:24:36;8.30;;;3.88;;
65737;SDS011;52478;51.844;6.582;2023-10-19T23:27:03;7.30;;;3.38;;
65737;SDS011;52478;51.844;6.582;2023-10-19T23:29:31;6.72;;;3.35;;
65737;SDS011;52478;51.844;6.582;2023-10-19T23:31:59;6.80;;;3.25;;
65737;SDS011;52478;51.844;6.582;2023-10-19T23:34:25;8.45;;;3.53;;
65737;SDS011;52478;51.844;6.582;2023-10-19T23:36:53;8.15;;;3.65;;
65737;SDS011;52478;51.844;6.582;2023-10-19T23:39:19;8.07;;;3.50;;
65737;SDS011;52478;51.844;6.582;2023-10-19T23:41:52;9.57;;;3.72;;
65737;SDS011;52478;51.844;6.582;2023-10-19T23:44:19;8.43;;;3.50;;
65737;SDS011;52478;51.844;6.582;2023-10-19T23:46:48;8.75;;;3.47;;
65737;SDS011;52478;51.844;6.582;2023-10-19T23:49:15;7.63;;;3.45;;
65737;SDS011;52478;51.844;6.582;2023-10-19T23:51:41;10.05;;;3.65;;
65737;SDS011;52478;51.844;6.582;2023-10-19T23:54:08;7.95;;;3.85;;
65737;SDS011;52478;51.844;6.582;2023-10-19T23:56:34;8.02;;;4.00;;
65737;SDS011;52478;51.844;6.582;2023-10-19T23:59:01;8.63;;;3.58;;
